sensor_id;sensor_type;location;lat;lon;timestamp;P1;durP1;ratioP1;P2;durP2;ratioP2
15764;SDS011;7983;50.744;7.086;2024-02-26T00:01:58;0.88;;;0.70;;
15764;SDS011;7983;50.744;7.086;2024-02-26T00:04:24;1.05;;;0.82;;
15764;SDS011;7983;50.744;7.086;2024-02-26T00:06:49;1.42;;;0.93;;
15764;SDS011;7983;50.744;7.086;2024-02-26T00:09:19;2.25;;;0.95;;
15764;SDS011;7983;50.744;7.086;2024-02-26T00:11:44;1.42;;;0.90;;
15764;SDS011;7983;50.744;7.086;2024-02-26T00:14:10;0.88;;;0.70;;
15764;SDS011;7983;50.744;7.086;2024-02-26T00:16:36;1.20;;;0.82;;
15764;SDS011;7983;50.744;7.086;2024-02-26T00:19:04;1.42;;;0.80;;
15764;SDS011;7983;50.744;7.086;2024-02-26T00:21:30;0.85;;;0.73;;
15764;SDS011;7983;50.744;7.086;2024-02-26T00:23:55;1.10;;;0.90;;
15764;SDS011;7983;50.744;7.086;2024-02-26T00:26:21;1.15;;;0.80;;
15764;SDS011;7983;50.744;7.086;2024-02-26T00:28:46;0.80;;;0.77;;
15764;SDS011;7983;50.744;7.086;2024-02-26T00:31:12;1.25;;;0.70;;
15764;SDS011;7983;50.744;7.086;2024-02-26T00:33:38;1.15;;;0.70;;
15764;SDS011;7983;50.744;7.086;2024-02-26T00:36:05;0.63;;;0.55;;
15764;SDS011;7983;50.744;7.086;2024-02-26T00:38:31;0.82;;;0.65;;
15764;SDS011;7983;50.744;7.086;2024-02-26T00:40:57;1.23;;;0.55;;
15764;SDS011;7983;50.744;7.086;2024-02-26T00:43:25;0.80;;;0.68;;
15764;SDS011;7983;50.744;7.086;2024-02-26T00:45:50;0.80;;;0.70;;
15764;SDS011;7983;50.744;7.086;2024-02-26T00:48:17;1.35;;;0.82;;
15764;SDS011;7983;50.744;7.086;2024-02-26T00:50:43;1.10;;;0.60;;
15764;SDS011;7983;50.744;7.086;2024-02-26T00:53:08;1.08;;;0.70;;
15764;SDS011;7983;50.744;7.086;2024-02-26T00:55:34;0.80;;;0.60;;
15764;SDS011;7983;50.744;7.086;2024-02-26T00:58:00;1.27;;;0.82;;
15764;SDS011;7983;50.744;7.086;2024-02-26T01:00:25;1.13;;;0.80;;
15764;SDS011;7983;50.744;7.086;2024-02-26T01:02:51;2.38;;;0.90;;
15764;SDS011;7983;50.744;7.086;2024-02-26T01:05:16;1.70;;;0.68;;
15764;SDS011;7983;50.744;7.086;2024-02-26T01:07:44;1.23;;;0.82;;
15764;SDS011;7983;50.744;7.086;2024-02-26T01:10:10;1.10;;;0.70;;
15764;SDS011;7983;50.744;7.086;2024-02-26T01:12:36;1.95;;;0.73;;
15764;SDS011;7983;50.744;7.086;2024-02-26T01:15:04;0.93;;;0.60;;
15764;SDS011;7983;50.744;7.086;2024-02-26T01:17:32;1.40;;;0.70;;
15764;SDS011;7983;50.744;7.086;2024-02-26T01:19:58;1.00;;;0.75;;
15764;SDS011;7983;50.744;7.086;2024-02-26T01:22:24;1.50;;;0.90;;
15764;SDS011;7983;50.744;7.086;2024-02-26T01:24:54;1.02;;;0.60;;
15764;SDS011;7983;50.744;7.086;2024-02-26T01:27:21;1.23;;;0.80;;
15764;SDS011;7983;50.744;7.086;2024-02-26T01:29:51;1.20;;;0.82;;
15764;SDS011;7983;50.744;7.086;2024-02-26T01:32:17;1.38;;;0.68;;
15764;SDS011;7983;50.744;7.086;2024-02-26T01:34:43;0.98;;;0.70;;
15764;SDS011;7983;50.744;7.086;2024-02-26T01:37:08;0.82;;;0.68;;
15764;SDS011;7983;50.744;7.086;2024-02-26T01:39:34;1.30;;;0.80;;
15764;SDS011;7983;50.744;7.086;2024-02-26T01:42:03;0.65;;;0.50;;
15764;SDS011;7983;50.744;7.086;2024-02-26T01:44:28;1.20;;;0.70;;
15764;SDS011;7983;50.744;7.086;2024-02-26T01:46:54;0.90;;;0.70;;
15764;SDS011;7983;50.744;7.086;2024-02-26T01:49:20;0.75;;;0.52;;
15764;SDS011;7983;50.744;7.086;2024-02-26T01:51:48;0.70;;;0.60;;
15764;SDS011;7983;50.744;7.086;2024-02-26T01:54:14;0.63;;;0.50;;
15764;SDS011;7983;50.744;7.086;2024-02-26T01:56:40;0.82;;;0.52;;
15764;SDS011;7983;50.744;7.086;2024-02-26T01:59:06;0.60;;;0.60;;
15764;SDS011;7983;50.744;7.086;2024-02-26T02:01:33;0.93;;;0.50;;
15764;SDS011;7983;50.744;7.086;2024-02-26T02:04:00;0.70;;;0.50;;
15764;SDS011;7983;50.744;7.086;2024-02-26T02:06:27;1.00;;;0.60;;
15764;SDS011;7983;50.744;7.086;2024-02-26T02:08:58;0.83;;;0.57;;
15764;SDS011;7983;50.744;7.086;2024-02-26T02:11:25;0.60;;;0.57;;
15764;SDS011;7983;50.744;7.086;2024-02-26T02:13:51;1.33;;;0.80;;
15764;SDS011;7983;50.744;7.086;2024-02-26T02:16:16;1.08;;;0.80;;
15764;SDS011;7983;50.744;7.086;2024-02-26T02:18:44;0.60;;;0.50;;
15764;SDS011;7983;50.744;7.086;2024-02-26T02:21:12;1.00;;;0.60;;
15764;SDS011;7983;50.744;7.086;2024-02-26T02:23:38;0.93;;;0.60;;
15764;SDS011;7983;50.744;7.086;2024-02-26T02:26:03;0.73;;;0.70;;
15764;SDS011;7983;50.744;7.086;2024-02-26T02:28:29;1.08;;;0.68;;
15764;SDS011;7983;50.744;7.086;2024-02-26T02:30:56;1.00;;;0.60;;
15764;SDS011;7983;50.744;7.086;2024-02-26T02:33:21;0.80;;;0.60;;
15764;SDS011;7983;50.744;7.086;2024-02-26T02:35:48;0.55;;;0.50;;
15764;SDS011;7983;50.744;7.086;2024-02-26T02:38:15;1.43;;;0.50;;
15764;SDS011;7983;50.744;7.086;2024-02-26T02:40:41;0.90;;;0.57;;
15764;SDS011;7983;50.744;7.086;2024-02-26T02:43:07;0.57;;;0.47;;
15764;SDS011;7983;50.744;7.086;2024-02-26T02:45:35;0.65;;;0.50;;
15764;SDS011;7983;50.744;7.086;2024-02-26T02:48:00;0.77;;;0.68;;
15764;SDS011;7983;50.744;7.086;2024-02-26T02:50:28;0.97;;;0.63;;
15764;SDS011;7983;50.744;7.086;2024-02-26T02:52:57;0.90;;;0.50;;
15764;SDS011;7983;50.744;7.086;2024-02-26T02:55:24;0.70;;;0.50;;
15764;SDS011;7983;50.744;7.086;2024-02-26T02:57:50;1.30;;;0.90;;
15764;SDS011;7983;50.744;7.086;2024-02-26T03:00:16;2.58;;;0.70;;
15764;SDS011;7983;50.744;7.086;2024-02-26T03:02:44;0.83;;;0.60;;
15764;SDS011;7983;50.744;7.086;2024-02-26T03:05:12;2.20;;;0.80;;
15764;SDS011;7983;50.744;7.086;2024-02-26T03:07:38;3.03;;;0.97;;
15764;SDS011;7983;50.744;7.086;2024-02-26T03:10:03;1.25;;;0.80;;
15764;SDS011;7983;50.744;7.086;2024-02-26T03:12:29;1.33;;;0.70;;
15764;SDS011;7983;50.744;7.086;2024-02-26T03:14:55;1.67;;;0.70;;
15764;SDS011;7983;50.744;7.086;2024-02-26T03:17:21;1.30;;;0.70;;
15764;SDS011;7983;50.744;7.086;2024-02-26T03:19:49;1.30;;;0.60;;
15764;SDS011;7983;50.744;7.086;2024-02-26T03:22:18;0.90;;;0.60;;
15764;SDS011;7983;50.744;7.086;2024-02-26T03:24:46;0.90;;;0.70;;
15764;SDS011;7983;50.744;7.086;2024-02-26T03:27:14;0.97;;;0.60;;
15764;SDS011;7983;50.744;7.086;2024-02-26T03:29:40;0.97;;;0.60;;
15764;SDS011;7983;50.744;7.086;2024-02-26T03:32:06;0.80;;;0.60;;
15764;SDS011;7983;50.744;7.086;2024-02-26T03:34:32;0.90;;;0.70;;
15764;SDS011;7983;50.744;7.086;2024-02-26T03:37:03;0.87;;;0.57;;
15764;SDS011;7983;50.744;7.086;2024-02-26T03:39:32;1.67;;;1.00;;
15764;SDS011;7983;50.744;7.086;2024-02-26T03:42:03;0.80;;;0.77;;
15764;SDS011;7983;50.744;7.086;2024-02-26T03:44:29;2.80;;;0.80;;
15764;SDS011;7983;50.744;7.086;2024-02-26T03:46:54;0.90;;;0.60;;
15764;SDS011;7983;50.744;7.086;2024-02-26T03:49:22;0.90;;;0.70;;
15764;SDS011;7983;50.744;7.086;2024-02-26T03:51:50;1.70;;;0.90;;
15764;SDS011;7983;50.744;7.086;2024-02-26T03:54:18;1.23;;;0.90;;
15764;SDS011;7983;50.744;7.086;2024-02-26T03:56:43;1.30;;;0.90;;
15764;SDS011;7983;50.744;7.086;2024-02-26T03:59:11;1.43;;;0.70;;
15764;SDS011;7983;50.744;7.086;2024-02-26T04:01:37;0.73;;;0.60;;
15764;SDS011;7983;50.744;7.086;2024-02-26T04:04:02;2.47;;;0.77;;
15764;SDS011;7983;50.744;7.086;2024-02-26T04:06:30;0.70;;;0.57;;
15764;SDS011;7983;50.744;7.086;2024-02-26T04:08:56;0.50;;;0.50;;
15764;SDS011;7983;50.744;7.086;2024-02-26T04:11:21;0.60;;;0.60;;
15764;SDS011;7983;50.744;7.086;2024-02-26T04:13:47;0.83;;;0.50;;
15764;SDS011;7983;50.744;7.086;2024-02-26T04:16:16;1.07;;;0.70;;
15764;SDS011;7983;50.744;7.086;2024-02-26T04:18:41;1.43;;;0.60;;
15764;SDS011;7983;50.744;7.086;2024-02-26T04:21:07;0.90;;;0.70;;
15764;SDS011;7983;50.744;7.086;2024-02-26T04:23:33;0.80;;;0.67;;
15764;SDS011;7983;50.744;7.086;2024-02-26T04:26:01;1.27;;;0.60;;
15764;SDS011;7983;50.744;7.086;2024-02-26T04:28:27;5.03;;;4.13;;
15764;SDS011;7983;50.744;7.086;2024-02-26T04:30:54;2.80;;;2.20;;
15764;SDS011;7983;50.744;7.086;2024-02-26T04:33:20;2.33;;;1.63;;
15764;SDS011;7983;50.744;7.086;2024-02-26T04:35:48;2.03;;;1.40;;
15764;SDS011;7983;50.744;7.086;2024-02-26T04:38:14;1.33;;;1.20;;
15764;SDS011;7983;50.744;7.086;2024-02-26T04:40:39;3.77;;;3.10;;
15764;SDS011;7983;50.744;7.086;2024-02-26T04:43:05;2.03;;;1.83;;
15764;SDS011;7983;50.744;7.086;2024-02-26T04:45:33;3.83;;;1.80;;
15764;SDS011;7983;50.744;7.086;2024-02-26T04:48:04;2.37;;;1.30;;
15764;SDS011;7983;50.744;7.086;2024-02-26T04:50:29;1.27;;;1.10;;
15764;SDS011;7983;50.744;7.086;2024-02-26T04:52:57;1.40;;;1.00;;
15764;SDS011;7983;50.744;7.086;2024-02-26T04:55:25;1.13;;;1.00;;
15764;SDS011;7983;50.744;7.086;2024-02-26T04:57:53;1.13;;;1.03;;
15764;SDS011;7983;50.744;7.086;2024-02-26T05:00:19;1.37;;;0.90;;
15764;SDS011;7983;50.744;7.086;2024-02-26T05:02:44;1.60;;;1.20;;
15764;SDS011;7983;50.744;7.086;2024-02-26T05:05:11;2.87;;;2.30;;
15764;SDS011;7983;50.744;7.086;2024-02-26T05:07:41;1.60;;;1.30;;
15764;SDS011;7983;50.744;7.086;2024-02-26T05:10:10;1.47;;;1.00;;
15764;SDS011;7983;50.744;7.086;2024-02-26T05:12:36;1.20;;;1.07;;
15764;SDS011;7983;50.744;7.086;2024-02-26T05:15:02;1.40;;;1.00;;
15764;SDS011;7983;50.744;7.086;2024-02-26T05:17:28;1.23;;;0.90;;
15764;SDS011;7983;50.744;7.086;2024-02-26T05:19:56;1.30;;;0.90;;
15764;SDS011;7983;50.744;7.086;2024-02-26T05:22:21;1.30;;;0.80;;
15764;SDS011;7983;50.744;7.086;2024-02-26T05:24:47;1.20;;;0.90;;
15764;SDS011;7983;50.744;7.086;2024-02-26T05:27:15;1.07;;;0.80;;
15764;SDS011;7983;50.744;7.086;2024-02-26T05:29:41;2.53;;;1.67;;
15764;SDS011;7983;50.744;7.086;2024-02-26T05:32:07;1.20;;;0.87;;
15764;SDS011;7983;50.744;7.086;2024-02-26T05:34:37;1.57;;;1.10;;
15764;SDS011;7983;50.744;7.086;2024-02-26T05:37:03;1.00;;;0.80;;
15764;SDS011;7983;50.744;7.086;2024-02-26T05:39:28;2.73;;;1.00;;
15764;SDS011;7983;50.744;7.086;2024-02-26T05:41:54;0.93;;;0.80;;
15764;SDS011;7983;50.744;7.086;2024-02-26T05:44:22;1.47;;;0.93;;
15764;SDS011;7983;50.744;7.086;2024-02-26T05:46:51;1.13;;;0.90;;
15764;SDS011;7983;50.744;7.086;2024-02-26T05:49:16;1.80;;;1.10;;
15764;SDS011;7983;50.744;7.086;2024-02-26T05:51:44;1.20;;;0.97;;
15764;SDS011;7983;50.744;7.086;2024-02-26T05:54:12;1.73;;;1.00;;
15764;SDS011;7983;50.744;7.086;2024-02-26T05:56:38;1.20;;;1.00;;
15764;SDS011;7983;50.744;7.086;2024-02-26T05:59:04;1.70;;;0.90;;
15764;SDS011;7983;50.744;7.086;2024-02-26T06:01:30;1.47;;;0.90;;
15764;SDS011;7983;50.744;7.086;2024-02-26T06:03:56;1.03;;;0.80;;
15764;SDS011;7983;50.744;7.086;2024-02-26T06:06:22;1.20;;;0.90;;
15764;SDS011;7983;50.744;7.086;2024-02-26T06:08:48;1.10;;;1.00;;
15764;SDS011;7983;50.744;7.086;2024-02-26T06:11:18;1.67;;;1.00;;
15764;SDS011;7983;50.744;7.086;2024-02-26T06:13:47;1.77;;;1.07;;
15764;SDS011;7983;50.744;7.086;2024-02-26T06:16:13;1.87;;;0.97;;
15764;SDS011;7983;50.744;7.086;2024-02-26T06:18:41;1.60;;;1.10;;
15764;SDS011;7983;50.744;7.086;2024-02-26T06:21:09;1.13;;;0.83;;
15764;SDS011;7983;50.744;7.086;2024-02-26T06:23:38;1.10;;;0.90;;
15764;SDS011;7983;50.744;7.086;2024-02-26T06:26:05;2.03;;;0.80;;
15764;SDS011;7983;50.744;7.086;2024-02-26T06:28:33;1.03;;;0.90;;
15764;SDS011;7983;50.744;7.086;2024-02-26T06:31:00;1.17;;;0.97;;
15764;SDS011;7983;50.744;7.086;2024-02-26T06:33:29;1.50;;;1.20;;
15764;SDS011;7983;50.744;7.086;2024-02-26T06:35:54;1.30;;;1.10;;
15764;SDS011;7983;50.744;7.086;2024-02-26T06:38:20;1.63;;;1.00;;
15764;SDS011;7983;50.744;7.086;2024-02-26T06:40:45;1.17;;;1.00;;
15764;SDS011;7983;50.744;7.086;2024-02-26T06:43:11;1.37;;;0.97;;
15764;SDS011;7983;50.744;7.086;2024-02-26T06:45:39;1.53;;;1.07;;
15764;SDS011;7983;50.744;7.086;2024-02-26T06:48:05;1.90;;;0.93;;
15764;SDS011;7983;50.744;7.086;2024-02-26T06:50:31;1.40;;;1.20;;
15764;SDS011;7983;50.744;7.086;2024-02-26T06:52:58;1.40;;;0.90;;
15764;SDS011;7983;50.744;7.086;2024-02-26T06:55:24;1.60;;;1.20;;
15764;SDS011;7983;50.744;7.086;2024-02-26T06:57:49;1.93;;;1.20;;
15764;SDS011;7983;50.744;7.086;2024-02-26T07:00:15;1.50;;;1.20;;
15764;SDS011;7983;50.744;7.086;2024-02-26T07:02:42;1.43;;;1.10;;
15764;SDS011;7983;50.744;7.086;2024-02-26T07:05:10;1.67;;;1.10;;
15764;SDS011;7983;50.744;7.086;2024-02-26T07:07:36;1.40;;;0.97;;
15764;SDS011;7983;50.744;7.086;2024-02-26T07:10:04;1.40;;;1.00;;
15764;SDS011;7983;50.744;7.086;2024-02-26T07:12:30;1.43;;;1.20;;
15764;SDS011;7983;50.744;7.086;2024-02-26T07:14:56;1.10;;;1.00;;
15764;SDS011;7983;50.744;7.086;2024-02-26T07:17:23;1.70;;;1.10;;
15764;SDS011;7983;50.744;7.086;2024-02-26T07:19:48;2.40;;;1.40;;
15764;SDS011;7983;50.744;7.086;2024-02-26T07:22:18;2.73;;;1.60;;
15764;SDS011;7983;50.744;7.086;2024-02-26T07:24:49;2.63;;;1.60;;
15764;SDS011;7983;50.744;7.086;2024-02-26T07:27:17;1.43;;;1.20;;
15764;SDS011;7983;50.744;7.086;2024-02-26T07:29:43;2.17;;;1.60;;
15764;SDS011;7983;50.744;7.086;2024-02-26T07:32:09;2.27;;;1.60;;
15764;SDS011;7983;50.744;7.086;2024-02-26T07:34:37;2.27;;;1.20;;
15764;SDS011;7983;50.744;7.086;2024-02-26T07:37:06;2.17;;;1.47;;
15764;SDS011;7983;50.744;7.086;2024-02-26T07:39:32;1.60;;;1.30;;
15764;SDS011;7983;50.744;7.086;2024-02-26T07:42:03;2.10;;;1.50;;
15764;SDS011;7983;50.744;7.086;2024-02-26T07:44:31;1.77;;;1.40;;
15764;SDS011;7983;50.744;7.086;2024-02-26T07:47:00;3.30;;;1.50;;
15764;SDS011;7983;50.744;7.086;2024-02-26T07:49:25;3.60;;;1.60;;
15764;SDS011;7983;50.744;7.086;2024-02-26T07:51:51;1.80;;;1.37;;
15764;SDS011;7983;50.744;7.086;2024-02-26T07:54:19;2.13;;;1.50;;
15764;SDS011;7983;50.744;7.086;2024-02-26T07:56:45;2.30;;;1.37;;
15764;SDS011;7983;50.744;7.086;2024-02-26T07:59:10;1.90;;;1.30;;
15764;SDS011;7983;50.744;7.086;2024-02-26T08:01:38;1.40;;;1.20;;
15764;SDS011;7983;50.744;7.086;2024-02-26T08:04:06;1.47;;;1.17;;
15764;SDS011;7983;50.744;7.086;2024-02-26T08:06:32;2.07;;;1.40;;
15764;SDS011;7983;50.744;7.086;2024-02-26T08:09:00;1.57;;;1.27;;
15764;SDS011;7983;50.744;7.086;2024-02-26T08:11:26;1.30;;;1.20;;
15764;SDS011;7983;50.744;7.086;2024-02-26T08:13:53;2.10;;;1.43;;
15764;SDS011;7983;50.744;7.086;2024-02-26T08:16:18;1.77;;;1.30;;
15764;SDS011;7983;50.744;7.086;2024-02-26T08:18:44;1.50;;;1.20;;
15764;SDS011;7983;50.744;7.086;2024-02-26T08:21:12;1.83;;;1.40;;
15764;SDS011;7983;50.744;7.086;2024-02-26T08:23:37;2.87;;;1.57;;
15764;SDS011;7983;50.744;7.086;2024-02-26T08:26:05;2.10;;;1.40;;
15764;SDS011;7983;50.744;7.086;2024-02-26T08:28:32;1.40;;;1.30;;
15764;SDS011;7983;50.744;7.086;2024-02-26T08:30:57;2.07;;;1.53;;
15764;SDS011;7983;50.744;7.086;2024-02-26T08:33:23;1.90;;;1.30;;
15764;SDS011;7983;50.744;7.086;2024-02-26T08:35:49;2.63;;;1.67;;
15764;SDS011;7983;50.744;7.086;2024-02-26T08:38:14;2.10;;;1.50;;
15764;SDS011;7983;50.744;7.086;2024-02-26T08:40:40;2.53;;;2.07;;
15764;SDS011;7983;50.744;7.086;2024-02-26T08:43:08;2.47;;;1.80;;
15764;SDS011;7983;50.744;7.086;2024-02-26T08:45:34;3.40;;;2.27;;
15764;SDS011;7983;50.744;7.086;2024-02-26T08:48:00;4.70;;;1.77;;
15764;SDS011;7983;50.744;7.086;2024-02-26T08:50:28;1.80;;;1.43;;
15764;SDS011;7983;50.744;7.086;2024-02-26T08:52:58;2.90;;;1.60;;
15764;SDS011;7983;50.744;7.086;2024-02-26T08:55:26;2.40;;;1.50;;
15764;SDS011;7983;50.744;7.086;2024-02-26T08:57:52;2.40;;;1.53;;
15764;SDS011;7983;50.744;7.086;2024-02-26T09:00:17;1.40;;;1.20;;
15764;SDS011;7983;50.744;7.086;2024-02-26T09:02:47;2.10;;;1.30;;
15764;SDS011;7983;50.744;7.086;2024-02-26T09:05:14;1.73;;;1.33;;
15764;SDS011;7983;50.744;7.086;2024-02-26T09:07:44;2.60;;;1.60;;
15764;SDS011;7983;50.744;7.086;2024-02-26T09:10:11;2.13;;;1.57;;
15764;SDS011;7983;50.744;7.086;2024-02-26T09:12:37;1.70;;;1.53;;
15764;SDS011;7983;50.744;7.086;2024-02-26T09:15:06;2.07;;;1.60;;
15764;SDS011;7983;50.744;7.086;2024-02-26T09:17:34;2.07;;;1.53;;
15764;SDS011;7983;50.744;7.086;2024-02-26T09:20:01;2.10;;;1.63;;
15764;SDS011;7983;50.744;7.086;2024-02-26T09:22:27;1.73;;;1.50;;
15764;SDS011;7983;50.744;7.086;2024-02-26T09:24:55;2.10;;;1.57;;
15764;SDS011;7983;50.744;7.086;2024-02-26T09:27:21;2.43;;;1.90;;
15764;SDS011;7983;50.744;7.086;2024-02-26T09:29:48;2.53;;;1.90;;
15764;SDS011;7983;50.744;7.086;2024-02-26T09:32:16;1.67;;;1.47;;
15764;SDS011;7983;50.744;7.086;2024-02-26T09:34:46;3.17;;;2.07;;
15764;SDS011;7983;50.744;7.086;2024-02-26T09:37:12;2.83;;;1.50;;
15764;SDS011;7983;50.744;7.086;2024-02-26T09:39:38;1.90;;;1.67;;
15764;SDS011;7983;50.744;7.086;2024-02-26T09:42:06;2.60;;;1.50;;
15764;SDS011;7983;50.744;7.086;2024-02-26T09:44:35;2.00;;;1.63;;
15764;SDS011;7983;50.744;7.086;2024-02-26T09:47:05;2.03;;;1.70;;
15764;SDS011;7983;50.744;7.086;2024-02-26T09:49:39;2.63;;;1.40;;
15764;SDS011;7983;50.744;7.086;2024-02-26T09:52:06;2.70;;;1.63;;
15764;SDS011;7983;50.744;7.086;2024-02-26T09:54:34;2.37;;;1.60;;
15764;SDS011;7983;50.744;7.086;2024-02-26T09:57:01;1.50;;;1.30;;
15764;SDS011;7983;50.744;7.086;2024-02-26T09:59:29;1.60;;;1.50;;
15764;SDS011;7983;50.744;7.086;2024-02-26T10:02:00;2.17;;;1.60;;
15764;SDS011;7983;50.744;7.086;2024-02-26T10:04:30;1.73;;;1.60;;
15764;SDS011;7983;50.744;7.086;2024-02-26T10:06:59;1.97;;;1.50;;
15764;SDS011;7983;50.744;7.086;2024-02-26T10:09:31;3.07;;;1.60;;
15764;SDS011;7983;50.744;7.086;2024-02-26T10:11:57;1.43;;;1.20;;
15764;SDS011;7983;50.744;7.086;2024-02-26T10:14:24;1.93;;;1.50;;
15764;SDS011;7983;50.744;7.086;2024-02-26T10:16:50;1.60;;;1.33;;
15764;SDS011;7983;50.744;7.086;2024-02-26T10:19:28;2.00;;;1.47;;
15764;SDS011;7983;50.744;7.086;2024-02-26T10:21:56;1.60;;;1.50;;
15764;SDS011;7983;50.744;7.086;2024-02-26T10:24:25;2.37;;;1.60;;
15764;SDS011;7983;50.744;7.086;2024-02-26T10:26:54;2.35;;;1.50;;
15764;SDS011;7983;50.744;7.086;2024-02-26T10:29:21;1.92;;;1.65;;
15764;SDS011;7983;50.744;7.086;2024-02-26T10:31:51;1.42;;;1.33;;
15764;SDS011;7983;50.744;7.086;2024-02-26T10:34:17;2.05;;;1.67;;
15764;SDS011;7983;50.744;7.086;2024-02-26T10:36:43;1.65;;;1.48;;
15764;SDS011;7983;50.744;7.086;2024-02-26T10:39:09;2.03;;;1.50;;
15764;SDS011;7983;50.744;7.086;2024-02-26T10:41:37;1.70;;;1.50;;
15764;SDS011;7983;50.744;7.086;2024-02-26T10:44:07;2.22;;;1.40;;
15764;SDS011;7983;50.744;7.086;2024-02-26T10:46:37;2.03;;;1.73;;
15764;SDS011;7983;50.744;7.086;2024-02-26T10:49:14;1.65;;;1.33;;
15764;SDS011;7983;50.744;7.086;2024-02-26T10:51:43;1.55;;;1.40;;
15764;SDS011;7983;50.744;7.086;2024-02-26T10:54:10;3.03;;;1.38;;
15764;SDS011;7983;50.744;7.086;2024-02-26T10:56:42;2.35;;;1.45;;
15764;SDS011;7983;50.744;7.086;2024-02-26T10:59:10;1.80;;;1.38;;
15764;SDS011;7983;50.744;7.086;2024-02-26T11:01:36;1.98;;;1.73;;
15764;SDS011;7983;50.744;7.086;2024-02-26T11:04:05;1.85;;;1.60;;
15764;SDS011;7983;50.744;7.086;2024-02-26T11:06:37;2.00;;;1.50;;
15764;SDS011;7983;50.744;7.086;2024-02-26T11:09:06;1.85;;;1.50;;
15764;SDS011;7983;50.744;7.086;2024-02-26T11:11:33;3.63;;;1.50;;
15764;SDS011;7983;50.744;7.086;2024-02-26T11:14:02;2.45;;;1.60;;
15764;SDS011;7983;50.744;7.086;2024-02-26T11:16:31;2.13;;;1.40;;
15764;SDS011;7983;50.744;7.086;2024-02-26T11:18:59;2.13;;;1.45;;
15764;SDS011;7983;50.744;7.086;2024-02-26T11:21:27;1.70;;;1.30;;
15764;SDS011;7983;50.744;7.086;2024-02-26T11:24:03;1.92;;;1.40;;
15764;SDS011;7983;50.744;7.086;2024-02-26T11:26:31;2.00;;;1.60;;
15764;SDS011;7983;50.744;7.086;2024-02-26T11:28:59;1.60;;;1.38;;
15764;SDS011;7983;50.744;7.086;2024-02-26T11:31:25;1.60;;;1.50;;
15764;SDS011;7983;50.744;7.086;2024-02-26T11:33:53;2.25;;;1.52;;
15764;SDS011;7983;50.744;7.086;2024-02-26T11:36:21;1.77;;;1.50;;
15764;SDS011;7983;50.744;7.086;2024-02-26T11:38:49;2.00;;;1.42;;
15764;SDS011;7983;50.744;7.086;2024-02-26T11:41:17;1.80;;;1.45;;
15764;SDS011;7983;50.744;7.086;2024-02-26T11:46:28;1.63;;;1.48;;
15764;SDS011;7983;50.744;7.086;2024-02-26T11:49:01;1.85;;;1.55;;
15764;SDS011;7983;50.744;7.086;2024-02-26T11:51:32;1.75;;;1.58;;
15764;SDS011;7983;50.744;7.086;2024-02-26T11:54:02;1.85;;;1.52;;
15764;SDS011;7983;50.744;7.086;2024-02-26T11:56:27;1.75;;;1.63;;
15764;SDS011;7983;50.744;7.086;2024-02-26T12:01:36;3.03;;;2.00;;
15764;SDS011;7983;50.744;7.086;2024-02-26T12:09:16;1.95;;;1.65;;
15764;SDS011;7983;50.744;7.086;2024-02-26T12:11:59;1.52;;;1.42;;
15764;SDS011;7983;50.744;7.086;2024-02-26T12:17:30;2.30;;;1.70;;
15764;SDS011;7983;50.744;7.086;2024-02-26T12:20:08;2.45;;;1.67;;
15764;SDS011;7983;50.744;7.086;2024-02-26T12:22:35;2.05;;;1.70;;
15764;SDS011;7983;50.744;7.086;2024-02-26T12:25:04;1.92;;;1.60;;
15764;SDS011;7983;50.744;7.086;2024-02-26T12:27:30;2.40;;;2.00;;
15764;SDS011;7983;50.744;7.086;2024-02-26T12:29:58;2.15;;;1.70;;
15764;SDS011;7983;50.744;7.086;2024-02-26T12:32:24;2.60;;;1.80;;
15764;SDS011;7983;50.744;7.086;2024-02-26T12:34:50;2.97;;;2.10;;
15764;SDS011;7983;50.744;7.086;2024-02-26T12:37:16;1.92;;;1.58;;
15764;SDS011;7983;50.744;7.086;2024-02-26T12:39:42;2.55;;;1.90;;
15764;SDS011;7983;50.744;7.086;2024-02-26T12:42:10;3.72;;;2.00;;
15764;SDS011;7983;50.744;7.086;2024-02-26T12:44:37;2.47;;;1.58;;
15764;SDS011;7983;50.744;7.086;2024-02-26T12:47:03;2.88;;;1.90;;
15764;SDS011;7983;50.744;7.086;2024-02-26T12:49:29;2.75;;;1.80;;
15764;SDS011;7983;50.744;7.086;2024-02-26T12:51:58;1.85;;;1.60;;
15764;SDS011;7983;50.744;7.086;2024-02-26T12:54:32;2.83;;;1.77;;
15764;SDS011;7983;50.744;7.086;2024-02-26T12:57:04;2.60;;;1.80;;
15764;SDS011;7983;50.744;7.086;2024-02-26T12:59:32;2.10;;;1.70;;
15764;SDS011;7983;50.744;7.086;2024-02-26T13:01:59;3.00;;;1.85;;
15764;SDS011;7983;50.744;7.086;2024-02-26T13:04:28;3.10;;;1.80;;
15764;SDS011;7983;50.744;7.086;2024-02-26T13:06:55;2.20;;;1.85;;
15764;SDS011;7983;50.744;7.086;2024-02-26T13:09:25;2.78;;;1.80;;
15764;SDS011;7983;50.744;7.086;2024-02-26T13:11:55;2.10;;;1.70;;
15764;SDS011;7983;50.744;7.086;2024-02-26T13:14:21;2.72;;;1.63;;
15764;SDS011;7983;50.744;7.086;2024-02-26T13:16:58;2.22;;;1.75;;
15764;SDS011;7983;50.744;7.086;2024-02-26T13:19:24;2.25;;;1.80;;
15764;SDS011;7983;50.744;7.086;2024-02-26T13:21:50;3.13;;;1.50;;
15764;SDS011;7983;50.744;7.086;2024-02-26T13:24:19;2.17;;;1.70;;
15764;SDS011;7983;50.744;7.086;2024-02-26T13:26:47;1.98;;;1.55;;
15764;SDS011;7983;50.744;7.086;2024-02-26T13:29:19;2.92;;;1.60;;
15764;SDS011;7983;50.744;7.086;2024-02-26T13:31:45;3.10;;;2.42;;
15764;SDS011;7983;50.744;7.086;2024-02-26T13:34:11;2.78;;;1.80;;
15764;SDS011;7983;50.744;7.086;2024-02-26T13:36:56;2.40;;;1.80;;
15764;SDS011;7983;50.744;7.086;2024-02-26T13:39:22;2.38;;;1.60;;
15764;SDS011;7983;50.744;7.086;2024-02-26T13:41:52;2.30;;;1.70;;
15764;SDS011;7983;50.744;7.086;2024-02-26T13:44:20;2.10;;;1.50;;
15764;SDS011;7983;50.744;7.086;2024-02-26T13:46:46;1.80;;;1.40;;
15764;SDS011;7983;50.744;7.086;2024-02-26T13:49:12;2.20;;;2.00;;
15764;SDS011;7983;50.744;7.086;2024-02-26T13:51:38;1.90;;;1.50;;
15764;SDS011;7983;50.744;7.086;2024-02-26T13:54:06;2.13;;;1.60;;
15764;SDS011;7983;50.744;7.086;2024-02-26T13:56:34;2.13;;;1.73;;
15764;SDS011;7983;50.744;7.086;2024-02-26T13:59:00;2.80;;;1.98;;
15764;SDS011;7983;50.744;7.086;2024-02-26T14:01:27;2.97;;;1.80;;
15764;SDS011;7983;50.744;7.086;2024-02-26T14:03:53;2.80;;;2.00;;
15764;SDS011;7983;50.744;7.086;2024-02-26T14:06:22;2.03;;;1.63;;
15764;SDS011;7983;50.744;7.086;2024-02-26T14:08:50;2.42;;;1.80;;
15764;SDS011;7983;50.744;7.086;2024-02-26T14:11:16;2.05;;;1.70;;
15764;SDS011;7983;50.744;7.086;2024-02-26T14:13:44;2.95;;;1.90;;
15764;SDS011;7983;50.744;7.086;2024-02-26T14:16:11;2.70;;;1.70;;
15764;SDS011;7983;50.744;7.086;2024-02-26T14:18:38;2.15;;;1.83;;
15764;SDS011;7983;50.744;7.086;2024-02-26T14:21:12;3.58;;;2.05;;
15764;SDS011;7983;50.744;7.086;2024-02-26T14:23:38;2.85;;;1.80;;
15764;SDS011;7983;50.744;7.086;2024-02-26T14:26:04;2.10;;;1.90;;
15764;SDS011;7983;50.744;7.086;2024-02-26T14:28:30;3.22;;;1.98;;
15764;SDS011;7983;50.744;7.086;2024-02-26T14:30:59;2.72;;;1.85;;
15764;SDS011;7983;50.744;7.086;2024-02-26T14:33:27;2.80;;;2.00;;
15764;SDS011;7983;50.744;7.086;2024-02-26T14:35:53;2.72;;;1.90;;
15764;SDS011;7983;50.744;7.086;2024-02-26T14:38:19;3.00;;;2.15;;
15764;SDS011;7983;50.744;7.086;2024-02-26T14:40:45;2.30;;;1.92;;
15764;SDS011;7983;50.744;7.086;2024-02-26T14:43:10;3.55;;;2.17;;
15764;SDS011;7983;50.744;7.086;2024-02-26T14:45:36;3.03;;;2.00;;
15764;SDS011;7983;50.744;7.086;2024-02-26T14:48:04;2.42;;;1.80;;
15764;SDS011;7983;50.744;7.086;2024-02-26T14:50:31;2.78;;;2.10;;
15764;SDS011;7983;50.744;7.086;2024-02-26T14:52:58;4.03;;;2.20;;
15764;SDS011;7983;50.744;7.086;2024-02-26T14:55:25;2.67;;;2.28;;
15764;SDS011;7983;50.744;7.086;2024-02-26T14:57:51;2.88;;;2.40;;
15764;SDS011;7983;50.744;7.086;2024-02-26T15:00:16;3.13;;;2.30;;
15764;SDS011;7983;50.744;7.086;2024-02-26T15:02:42;2.40;;;1.80;;
15764;SDS011;7983;50.744;7.086;2024-02-26T15:05:08;2.78;;;2.20;;
15764;SDS011;7983;50.744;7.086;2024-02-26T15:07:36;2.70;;;2.28;;
15764;SDS011;7983;50.744;7.086;2024-02-26T15:10:05;3.47;;;2.47;;
15764;SDS011;7983;50.744;7.086;2024-02-26T15:12:34;2.55;;;2.03;;
15764;SDS011;7983;50.744;7.086;2024-02-26T15:14:59;3.50;;;2.35;;